createdAt,value
2022-12-06T00:00:04.420Z,101174.34
2022-12-06T00:02:32.315Z,101172.78
2022-12-06T00:05:00.156Z,101173.56
2022-12-06T00:07:27.931Z,101179.63
2022-12-06T00:09:57.245Z,101187.25
2022-12-06T00:12:25.259Z,101181.78
2022-12-06T00:14:53.136Z,101180.25
2022-12-06T00:17:20.834Z,101175.47
2022-12-06T00:19:48.604Z,101172.66
2022-12-06T00:22:16.434Z,101173.78
2022-12-06T00:24:44.186Z,101161.94
2022-12-06T00:27:13.276Z,101165.63
2022-12-06T00:29:40.998Z,101164.09
2022-12-06T00:32:08.842Z,101164.09
2022-12-06T00:34:36.622Z,101162.53
2022-12-06T00:37:04.337Z,101160.09
2022-12-06T00:39:32.297Z,101155.19
2022-12-06T00:42:00.025Z,101156.59
2022-12-06T00:44:29.152Z,101155.44
2022-12-06T00:46:56.893Z,101157.56
2022-12-06T00:49:24.626Z,101153.91
2022-12-06T00:51:52.380Z,101159.84
2022-12-06T00:54:20.141Z,101159.41
2022-12-06T00:56:47.944Z,101158.84
2022-12-06T00:59:15.719Z,101155.19
2022-12-06T01:01:46.903Z,101154.66
2022-12-06T01:04:14.673Z,101159.72
2022-12-06T01:06:42.420Z,101150.69
2022-12-06T01:09:11.728Z,101158.72
2022-12-06T01:11:39.709Z,101146.91
2022-12-06T01:14:07.686Z,101149.69
2022-12-06T01:16:35.943Z,101149.44
2022-12-06T01:19:06.659Z,101147.00
2022-12-06T01:21:34.742Z,101147.00
2022-12-06T01:24:02.441Z,101157.19
2022-12-06T01:26:31.875Z,101151.25
2022-12-06T01:29:00.200Z,101147.13
2022-12-06T01:31:35.564Z,101153.34
2022-12-06T01:34:07.984Z,101149.25
2022-12-06T01:36:35.806Z,101149.94
2022-12-06T01:39:08.018Z,101146.44
2022-12-06T01:41:35.655Z,101146.03
2022-12-06T01:44:03.890Z,101149.97
2022-12-06T01:46:36.025Z,101140.53
2022-12-06T01:49:15.499Z,101138.84
2022-12-06T01:51:47.149Z,101134.16
2022-12-06T01:54:19.959Z,101129.66
2022-12-06T01:56:48.433Z,101137.97
2022-12-06T01:59:16.827Z,101122.25
2022-12-06T02:01:47.111Z,101126.88
2022-12-06T02:04:18.293Z,101128.56
2022-12-06T02:06:47.436Z,101124.91
2022-12-06T02:09:17.631Z,101119.44
2022-12-06T02:11:47.243Z,101122.38
2022-12-06T02:14:18.805Z,101117.72
2022-12-06T02:17:00.828Z,101110.41
2022-12-06T02:19:52.047Z,101115.63
2022-12-06T02:22:28.640Z,101112.34
2022-12-06T02:25:06.456Z,101107.00
2022-12-06T02:27:55.622Z,101103.19
2022-12-06T02:30:39.511Z,101111.22
2022-12-06T02:33:10.043Z,101105.88
2022-12-06T02:35:41.180Z,101098.13
2022-12-06T02:38:14.308Z,101100.53
2022-12-06T02:40:45.823Z,101098.00
2022-12-06T02:43:16.774Z,101099.94
2022-12-06T02:45:49.806Z,101098.53
2022-12-06T02:48:19.339Z,101100.81
2022-12-06T02:50:54.797Z,101107.13
2022-12-06T02:53:25.147Z,101095.84
2022-12-06T02:55:53.645Z,101101.34
2022-12-06T02:58:21.319Z,101096.28
2022-12-06T03:00:54.529Z,101094.31
2022-12-06T03:03:44.119Z,101095.28
2022-12-06T03:06:32.862Z,101090.06
2022-12-06T03:09:11.206Z,101092.06
2022-12-06T03:11:50.482Z,101094.88
2022-12-06T03:14:22.912Z,101089.72
2022-12-06T03:17:00.946Z,101094.06
2022-12-06T03:19:31.548Z,101091.81
2022-12-06T03:22:03.375Z,101083.94
2022-12-06T03:24:34.732Z,101093.19
2022-12-06T03:27:06.952Z,101098.25
2022-12-06T03:29:38.787Z,101096.38
2022-12-06T03:32:11.016Z,101095.56
2022-12-06T03:34:42.073Z,101098.50
2022-12-06T03:37:15.695Z,101100.47
2022-12-06T03:39:48.571Z,101094.44
2022-12-06T03:42:18.253Z,101087.81
2022-12-06T03:44:47.234Z,101091.75
2022-12-06T03:47:21.695Z,101091.47
2022-12-06T03:49:54.052Z,101083.03
2022-12-06T03:52:23.514Z,101081.50
2022-12-06T03:54:51.163Z,101074.31
2022-12-06T03:57:19.210Z,101076.00
2022-12-06T03:59:47.792Z,101068.72
2022-12-06T04:02:16.925Z,101070.81
2022-12-06T04:04:44.753Z,101063.38
2022-12-06T04:07:13.455Z,101065.19
2022-12-06T04:09:53.093Z,101065.59
2022-12-06T04:12:34.852Z,101058.84
2022-12-06T04:15:02.519Z,101062.75
2022-12-06T04:17:49.028Z,101067.69
2022-12-06T04:20:16.864Z,101063.47
2022-12-06T04:23:02.367Z,101062.47
2022-12-06T04:25:30.049Z,101059.66
2022-12-06T04:28:15.720Z,101062.34
2022-12-06T04:31:01.289Z,101061.53
2022-12-06T04:33:47.848Z,101060.69
2022-12-06T04:36:34.094Z,101053.78
2022-12-06T04:39:02.186Z,101050.69
2022-12-06T04:41:47.621Z,101051.41
2022-12-06T04:44:15.314Z,101053.78
2022-12-06T04:46:43.075Z,101047.31
2022-12-06T04:49:12.196Z,101043.94
2022-12-06T04:51:39.881Z,101042.94
2022-12-06T04:54:08.035Z,101040.56
2022-12-06T04:56:35.740Z,101040.84
2022-12-06T04:59:03.465Z,101039.00
2022-12-06T05:01:31.208Z,101037.59
2022-12-06T05:03:58.882Z,101044.22
2022-12-06T05:06:28.039Z,101033.94
2022-12-06T05:08:55.668Z,101043.09
2022-12-06T05:11:23.565Z,101046.75
2022-12-06T05:13:51.210Z,101043.38
2022-12-06T05:16:19.124Z,101042.94
2022-12-06T05:18:46.879Z,101041.53
2022-12-06T05:21:17.059Z,101037.59
2022-12-06T05:23:47.875Z,101038.56
2022-12-06T05:26:19.974Z,101035.06
2022-12-06T05:28:48.508Z,101045.03
2022-12-06T05:31:16.926Z,101040.69
2022-12-06T05:33:45.246Z,101038.88
2022-12-06T05:36:14.514Z,101040.53
2022-12-06T05:38:45.828Z,101040.81
2022-12-06T05:41:19.724Z,101026.59
2022-12-06T05:43:47.457Z,101028.44
2022-12-06T05:46:15.393Z,101031.25
2022-12-06T05:48:43.114Z,101022.66
2022-12-06T05:51:10.876Z,101025.34
2022-12-06T05:53:38.824Z,101026.22
2022-12-06T05:56:08.887Z,101025.50
2022-12-06T05:58:38.556Z,101020.84
2022-12-06T06:01:06.886Z,101019.16
2022-12-06T06:03:35.356Z,101015.94
2022-12-06T06:06:03.463Z,101023.38
2022-12-06T06:08:31.973Z,101022.97
2022-12-06T06:11:00.248Z,101022.53
2022-12-06T06:13:28.567Z,101018.31
2022-12-06T06:15:58.014Z,101018.59
2022-12-06T06:18:25.796Z,101016.19
2022-12-06T06:20:55.591Z,101014.38
2022-12-06T06:23:24.166Z,101011.13
2022-12-06T06:25:52.148Z,101023.25
2022-12-06T06:28:22.266Z,101013.13
2022-12-06T06:30:51.007Z,101010.44
2022-12-06T06:33:20.959Z,101017.75
2022-12-06T06:35:48.764Z,101013.53
2022-12-06T06:38:16.386Z,101013.97
2022-12-06T06:40:44.155Z,101013.53
2022-12-06T06:43:21.082Z,101012.97
2022-12-06T06:45:53.096Z,101019.31
2022-12-06T06:48:23.102Z,101020.72
2022-12-06T06:50:56.701Z,101014.66
2022-12-06T06:53:26.291Z,101017.03
2022-12-06T06:55:54.826Z,101020.69
2022-12-06T06:58:22.645Z,101014.94
2022-12-06T07:00:54.438Z,101012.69
2022-12-06T07:03:24.340Z,101022.28
2022-12-06T07:05:53.087Z,101025.34
2022-12-06T07:08:21.070Z,101022.09
2022-12-06T07:10:49.502Z,101031.81
2022-12-06T07:13:20.604Z,101030.97
2022-12-06T07:15:48.640Z,101027.63
2022-12-06T07:18:16.976Z,101033.94
2022-12-06T07:20:46.716Z,101041.13
2022-12-06T07:23:15.289Z,101047.47
2022-12-06T07:25:43.179Z,101042.25
2022-12-06T07:28:10.880Z,101052.09
2022-12-06T07:30:38.817Z,101050.84
2022-12-06T07:33:06.904Z,101056.47
2022-12-06T07:36:10.143Z,101060.28
2022-12-06T07:38:23.762Z,101055.19
2022-12-06T07:41:06.941Z,101060.56
2022-12-06T07:43:52.069Z,101058.28
2022-12-06T07:46:19.794Z,101046.75
2022-12-06T07:48:47.510Z,101050.84
2022-12-06T07:51:15.188Z,101050.97
2022-12-06T07:53:44.273Z,101050.13
2022-12-06T07:56:12.015Z,101052.09
2022-12-06T07:58:39.688Z,101053.66
2022-12-06T08:01:07.412Z,101051.13
2022-12-06T08:03:35.224Z,101046.75
2022-12-06T08:06:02.867Z,101054.91
2022-12-06T08:08:31.621Z,101054.91
2022-12-06T08:11:01.406Z,101058.56
2022-12-06T08:13:29.602Z,101047.59
2022-12-06T08:15:57.387Z,101046.72
2022-12-06T08:18:26.115Z,101062.38
2022-12-06T08:20:53.852Z,101059.97
2022-12-06T08:23:21.586Z,101056.16
2022-12-06T08:25:57.393Z,101061.53
2022-12-06T08:28:26.885Z,101069.41
2022-12-06T08:30:58.318Z,101067.56
2022-12-06T08:33:30.526Z,101071.78
2022-12-06T08:35:58.206Z,101069.84
2022-12-06T08:38:27.943Z,101066.03
2022-12-06T08:40:55.602Z,101068.25
2022-12-06T08:43:23.251Z,101065.56
2022-12-06T08:45:53.551Z,101070.81
2022-12-06T08:48:21.714Z,101071.50
2022-12-06T08:50:49.453Z,101068.13
2022-12-06T08:53:17.165Z,101067.84
2022-12-06T08:56:00.478Z,101074.47
2022-12-06T08:58:30.301Z,101073.88
2022-12-06T09:00:59.423Z,101069.09
2022-12-06T09:03:27.101Z,101070.63
2022-12-06T09:05:56.960Z,101078.81
2022-12-06T09:08:24.827Z,101077.97
2022-12-06T09:10:52.559Z,101084.84
2022-12-06T09:13:20.269Z,101078.94
2022-12-06T09:15:48.130Z,101083.72
2022-12-06T09:18:17.215Z,101083.34
2022-12-06T09:20:44.912Z,101085.00
2022-12-06T09:23:12.628Z,101081.34
2022-12-06T09:25:42.233Z,101088.69
2022-12-06T09:28:11.318Z,101080.66
2022-12-06T09:30:39.104Z,101085.00
2022-12-06T09:33:06.965Z,101079.91
2022-12-06T09:35:36.887Z,101080.47
2022-12-06T09:38:05.077Z,101080.47
2022-12-06T09:40:39.765Z,101079.34
2022-12-06T09:43:33.602Z,101074.25
2022-12-06T09:46:20.955Z,101082.84
2022-12-06T09:49:28.504Z,101082.47
2022-12-06T09:52:29.561Z,101082.47
2022-12-06T09:55:14.582Z,101082.19
2022-12-06T09:57:48.995Z,101080.94
2022-12-06T10:00:22.866Z,101079.50
2022-12-06T10:03:18.295Z,101083.00
2022-12-06T10:06:02.621Z,101068.06
2022-12-06T10:08:50.502Z,101069.72
2022-12-06T10:11:35.754Z,101066.25
2022-12-06T10:14:13.694Z,101066.34
2022-12-06T10:16:54.214Z,101067.47
2022-12-06T10:19:33.788Z,101060.94
2022-12-06T10:22:13.325Z,101061.63
2022-12-06T10:24:54.137Z,101057.81
2022-12-06T10:27:30.977Z,101056.56
2022-12-06T10:30:02.363Z,101055.50
2022-12-06T10:32:46.823Z,101052.09
2022-12-06T10:35:19.896Z,101047.06
2022-12-06T10:38:01.596Z,101045.66
2022-12-06T10:40:43.855Z,101050.72
2022-12-06T10:43:18.924Z,101051.84
2022-12-06T10:46:09.572Z,101054.13
2022-12-06T10:48:41.983Z,101055.97
2022-12-06T10:51:16.240Z,101043.41
2022-12-06T10:53:49.981Z,101038.88
2022-12-06T10:56:23.965Z,101046.66
2022-12-06T10:58:57.934Z,101043.66
2022-12-06T11:01:29.875Z,101045.34
2022-12-06T11:04:04.769Z,101045.69
2022-12-06T11:06:38.287Z,101045.38
2022-12-06T11:09:18.565Z,101045.94
2022-12-06T11:11:50.267Z,101036.09
2022-12-06T11:14:24.582Z,101034.38
2022-12-06T11:16:56.080Z,101042.44
2022-12-06T11:19:31.266Z,101035.53
2022-12-06T11:22:05.879Z,101036.22
2022-12-06T11:24:43.208Z,101038.75
2022-12-06T11:27:22.679Z,101039.34
2022-12-06T11:29:51.271Z,101035.28
2022-12-06T11:32:20.067Z,101032.28
2022-12-06T11:34:51.747Z,101035.84
2022-12-06T11:37:21.994Z,101039.50
2022-12-06T11:39:53.541Z,101027.09
2022-12-06T11:42:26.307Z,101031.47
2022-12-06T11:44:56.116Z,101033.28
2022-12-06T11:47:24.672Z,101031.31
2022-12-06T11:49:55.406Z,101028.78
2022-12-06T11:52:28.879Z,101028.63
2022-12-06T11:55:00.118Z,101021.25
2022-12-06T11:57:36.182Z,101027.34
2022-12-06T12:00:25.621Z,101030.75
2022-12-06T12:02:55.814Z,101025.38
2022-12-06T12:05:26.633Z,101014.25
2022-12-06T12:07:57.336Z,101015.63
2022-12-06T12:10:33.161Z,101024.06
2022-12-06T12:16:00.984Z,101024.34
2022-12-06T12:18:31.606Z,101025.38
2022-12-06T12:21:00.295Z,101016.75
2022-12-06T12:23:32.088Z,101019.59
2022-12-06T12:26:02.370Z,101007.13
2022-12-06T12:28:31.464Z,101004.69
2022-12-06T12:31:01.741Z,101006.22
2022-12-06T12:33:30.194Z,101013.13
2022-12-06T12:36:15.266Z,101004.84
2022-12-06T12:38:45.374Z,100999.63
2022-12-06T12:41:25.694Z,100997.09
2022-12-06T12:44:35.816Z,101004.28
2022-12-06T12:46:55.209Z,101002.63
2022-12-06T12:49:29.452Z,101000.22
2022-12-06T12:51:57.894Z,100999.63
2022-12-06T12:54:30.077Z,101005.19
2022-12-06T12:56:59.654Z,101000.59
2022-12-06T12:59:29.796Z,100998.31
2022-12-06T13:02:05.579Z,100998.53
2022-12-06T13:04:43.312Z,101001.75
2022-12-06T13:07:21.726Z,101000.94
2022-12-06T13:09:57.946Z,101001.00
2022-12-06T13:12:31.171Z,101007.97
2022-12-06T13:15:04.772Z,100986.84
2022-12-06T13:17:36.922Z,100994.88
2022-12-06T13:20:21.502Z,100986.59
2022-12-06T13:22:52.066Z,100987.66
2022-12-06T13:25:19.960Z,100990.88
2022-12-06T13:27:53.353Z,100982.53
2022-12-06T13:30:23.375Z,100989.44
2022-12-06T13:32:55.877Z,100984.06
2022-12-06T13:35:29.270Z,100993.25
2022-12-06T13:37:58.765Z,100984.22
2022-12-06T13:40:41.004Z,100991.56
2022-12-06T13:43:57.668Z,100994.00
2022-12-06T13:46:32.155Z,100996.09
2022-12-06T13:49:18.960Z,100990.19
2022-12-06T13:51:50.270Z,100985.13
2022-12-06T13:54:36.043Z,100983.97
2022-12-06T13:57:19.955Z,100987.19
2022-12-06T13:59:48.083Z,100986.44
2022-12-06T14:02:45.020Z,100990.78
2022-12-06T14:08:20.235Z,100993.28
2022-12-06T14:10:48.357Z,100991.16
2022-12-06T14:13:18.637Z,100999.88
2022-12-06T14:15:48.735Z,100994.28
2022-12-06T14:18:24.084Z,100993.97
2022-12-06T14:20:54.749Z,100989.72
2022-12-06T14:23:25.483Z,100984.72
2022-12-06T14:25:53.281Z,100980.59
2022-12-06T14:28:20.967Z,100981.16
2022-12-06T14:30:48.756Z,100982.44
2022-12-06T14:33:23.895Z,100984.81
2022-12-06T14:35:53.472Z,100986.78
2022-12-06T14:38:24.338Z,100989.63
2022-12-06T14:41:10.780Z,100989.63
2022-12-06T14:43:39.265Z,100999.38
2022-12-06T14:46:09.481Z,100992.47
2022-12-06T14:48:56.730Z,100994.31
2022-12-06T14:51:26.484Z,101001.50
2022-12-06T14:53:54.478Z,101004.88
2022-12-06T14:56:26.329Z,101004.03
2022-12-06T14:58:54.216Z,100998.16
2022-12-06T15:01:24.526Z,101008.56
2022-12-06T15:04:01.641Z,101008.56
2022-12-06T15:06:33.167Z,101004.03
2022-12-06T15:09:13.238Z,101016.19
2022-12-06T15:12:00.382Z,101006.78
2022-12-06T15:14:30.668Z,101006.34
2022-12-06T15:17:01.185Z,100998.31
2022-12-06T15:19:32.016Z,100999.28
2022-12-06T15:22:00.080Z,101006.34
2022-12-06T15:24:29.291Z,101007.91
2022-12-06T15:26:57.385Z,101005.69
2022-12-06T15:29:25.355Z,101006.78
2022-12-06T15:31:56.154Z,101004.41
2022-12-06T15:34:26.849Z,101008.47
2022-12-06T15:37:22.402Z,101011.94
2022-12-06T15:39:45.394Z,101009.91
2022-12-06T15:42:19.441Z,101009.81
2022-12-06T15:44:49.715Z,101008.66
2022-12-06T15:47:19.334Z,101001.44
2022-12-06T15:49:47.250Z,101002.47
2022-12-06T15:52:19.064Z,100994.88
2022-12-06T15:54:47.103Z,100994.31
2022-12-06T15:57:14.894Z,100994.09
2022-12-06T15:59:42.639Z,100990.41
2022-12-06T16:02:15.362Z,100991.13
2022-12-06T16:04:43.859Z,100985.88
2022-12-06T16:07:13.211Z,100986.19
2022-12-06T16:09:42.627Z,100983.13
2022-12-06T16:12:11.156Z,100982.28
2022-12-06T16:14:39.204Z,100984.50
2022-12-06T16:17:06.958Z,100968.41
2022-12-06T16:19:48.659Z,100975.31
2022-12-06T16:22:17.248Z,100981.22
2022-12-06T16:24:49.440Z,100986.13
2022-12-06T16:27:20.248Z,100989.44
2022-12-06T16:29:47.976Z,100986.19
2022-12-06T16:32:15.724Z,100985.13
2022-12-06T16:34:43.530Z,100984.88
2022-12-06T16:37:12.568Z,100977.28
2022-12-06T16:39:40.563Z,100985.91
2022-12-06T16:42:09.707Z,100982.16
2022-12-06T16:44:50.763Z,100972.00
2022-12-06T16:47:18.713Z,100971.53
2022-12-06T16:49:48.476Z,100973.63
2022-12-06T16:52:17.711Z,100974.59
2022-12-06T16:54:45.623Z,100967.47
2022-12-06T16:57:15.429Z,100973.66
2022-12-06T16:59:43.548Z,100974.22
2022-12-06T17:02:27.249Z,100975.34
2022-12-06T17:04:55.701Z,100967.16
2022-12-06T17:07:24.042Z,100966.00
2022-12-06T17:09:51.827Z,100971.09
2022-12-06T17:12:21.054Z,100969.56
2022-12-06T17:14:48.782Z,100960.50
2022-12-06T17:17:18.600Z,100965.09
2022-12-06T17:19:46.452Z,100964.59
2022-12-06T17:22:16.574Z,100964.34
2022-12-06T17:24:44.803Z,100964.69
2022-12-06T17:27:14.461Z,100960.41
2022-12-06T17:29:45.401Z,100966.44
2022-12-06T17:32:13.994Z,100971.03
2022-12-06T17:34:41.815Z,100963.31
2022-12-06T17:37:09.456Z,100953.00
2022-12-06T17:39:37.506Z,100961.63
2022-12-06T17:42:23.286Z,100955.56
2022-12-06T17:44:52.766Z,100965.59
2022-12-06T17:47:20.817Z,100966.66
2022-12-06T17:49:48.486Z,100958.63
2022-12-06T17:52:16.339Z,100970.81
2022-12-06T17:54:44.078Z,100967.28
2022-12-06T17:57:18.210Z,100961.47
2022-12-06T17:59:47.953Z,100966.25
2022-12-06T18:02:19.641Z,100963.09
2022-12-06T18:04:48.685Z,100960.41
2022-12-06T18:07:17.124Z,100965.53
2022-12-06T18:09:45.072Z,100968.69
2022-12-06T18:12:13.990Z,100966.16
2022-12-06T18:14:41.677Z,100967.97
2022-12-06T18:17:09.428Z,100972.34
2022-12-06T18:19:40.217Z,100959.03
2022-12-06T18:22:08.047Z,100965.63
2022-12-06T18:24:36.484Z,100976.72
2022-12-06T18:27:04.985Z,100975.50
2022-12-06T18:29:32.909Z,100968.47
2022-12-06T18:32:00.706Z,100967.31
2022-12-06T18:34:28.613Z,100968.47
2022-12-06T18:36:57.994Z,100964.22
2022-12-06T18:39:25.844Z,100958.72
2022-12-06T18:41:55.130Z,100970.31
2022-12-06T18:44:23.655Z,100965.78
2022-12-06T18:46:52.253Z,100962.69
2022-12-06T18:49:20.088Z,100963.31
2022-12-06T18:51:47.838Z,100960.31
2022-12-06T18:54:16.929Z,100961.88
2022-12-06T18:56:44.819Z,100949.69
2022-12-06T18:59:13.274Z,100951.69
2022-12-06T19:01:42.015Z,100956.75
2022-12-06T19:04:14.603Z,100952.59
2022-12-06T19:06:44.071Z,100948.22
2022-12-06T19:09:14.338Z,100945.22
2022-12-06T19:11:46.392Z,100942.41
2022-12-06T19:14:15.265Z,100942.44
2022-12-06T19:16:44.836Z,100941.53
2022-12-06T19:19:17.001Z,100943.88
2022-12-06T19:21:46.496Z,100951.84
2022-12-06T19:24:16.524Z,100942.91
2022-12-06T19:26:49.020Z,100945.88
2022-12-06T19:29:17.141Z,100944.16
2022-12-06T19:31:45.633Z,100952.69
2022-12-06T19:34:16.269Z,100942.41
2022-12-06T19:36:44.503Z,100943.69
2022-12-06T19:39:13.716Z,100951.22
2022-12-06T19:41:55.873Z,100947.66
2022-12-06T19:44:25.454Z,100944.00
2022-12-06T19:46:53.765Z,100948.78
2022-12-06T19:49:23.522Z,100936.06
2022-12-06T19:51:51.778Z,100935.38
2022-12-06T19:54:21.916Z,100931.44
2022-12-06T19:56:49.831Z,100941.47
2022-12-06T19:59:17.958Z,100932.16
2022-12-06T20:01:48.480Z,100933.72
2022-12-06T20:04:18.164Z,100933.72
2022-12-06T20:06:46.370Z,100943.06
2022-12-06T20:09:14.641Z,100934.03
2022-12-06T20:12:03.707Z,100926.38
2022-12-06T20:14:35.929Z,100924.09
2022-12-06T20:17:06.961Z,100920.28
2022-12-06T20:19:35.297Z,100916.47
2022-12-06T20:22:03.821Z,100921.50
2022-12-06T20:24:32.416Z,100918.81
2022-12-06T20:27:00.190Z,100916.47
2022-12-06T20:29:29.841Z,100914.38
2022-12-06T20:31:59.306Z,100914.22
2022-12-06T20:34:32.602Z,100915.22
2022-12-06T20:37:00.666Z,100920.44
2022-12-06T20:39:28.564Z,100916.06
2022-12-06T20:41:56.554Z,100912.00
2022-12-06T20:44:24.218Z,100903.25
2022-12-06T20:46:54.557Z,100899.50
2022-12-06T20:49:22.359Z,100895.56
2022-12-06T20:51:53.656Z,100896.28
2022-12-06T20:54:22.239Z,100894.31
2022-12-06T20:56:51.603Z,100886.78
2022-12-06T20:59:20.126Z,100888.25
2022-12-06T21:01:48.067Z,100882.34
2022-12-06T21:04:16.758Z,100872.63
2022-12-06T21:06:44.589Z,100873.06
2022-12-06T21:09:13.589Z,100870.22
2022-12-06T21:11:41.435Z,100861.06
2022-12-06T21:14:12.429Z,100865.84
2022-12-06T21:16:42.150Z,100871.09
2022-12-06T21:19:13.047Z,100869.41
2022-12-06T21:21:44.413Z,100871.78
2022-12-06T21:24:15.587Z,100861.91
2022-12-06T21:26:43.588Z,100858.53
2022-12-06T21:29:15.687Z,100858.38
2022-12-06T21:31:43.634Z,100854.88
2022-12-06T21:34:11.700Z,100840.59
2022-12-06T21:36:39.516Z,100846.81
2022-12-06T21:39:07.890Z,100834.09
2022-12-06T21:41:36.904Z,100844.81
2022-12-06T21:44:04.732Z,100829.63
2022-12-06T21:46:32.467Z,100831.75
2022-12-06T21:49:01.726Z,100836.94
2022-12-06T21:51:31.665Z,100838.63
2022-12-06T21:53:59.618Z,100838.16
2022-12-06T21:56:29.612Z,100840.84
2022-12-06T21:58:59.965Z,100846.06
2022-12-06T22:01:29.589Z,100849.00
2022-12-06T22:03:59.899Z,100842.41
2022-12-06T22:06:28.044Z,100840.66
2022-12-06T22:09:00.453Z,100832.06
2022-12-06T22:11:29.041Z,100838.81
2022-12-06T22:13:59.489Z,100835.41
2022-12-06T22:16:28.520Z,100836.72
2022-12-06T22:18:56.923Z,100834.34
2022-12-06T22:21:27.114Z,100828.78
2022-12-06T22:23:57.373Z,100824.13
2022-12-06T22:26:28.064Z,100830.69
2022-12-06T22:28:56.104Z,100827.03
2022-12-06T22:31:27.379Z,100825.34
2022-12-06T22:33:56.600Z,100820.81
2022-12-06T22:36:25.104Z,100819.97
2022-12-06T22:38:54.034Z,100820.63
2022-12-06T22:41:22.314Z,100823.31
2022-12-06T22:43:52.419Z,100811.44
2022-12-06T22:46:20.837Z,100810.25
2022-12-06T22:48:50.784Z,100812.59
2022-12-06T22:51:22.686Z,100808.25
2022-12-06T22:53:55.254Z,100806.56
2022-12-06T22:56:23.942Z,100810.09
2022-12-06T22:58:53.028Z,100805.03
2022-12-06T23:01:24.411Z,100798.81
2022-12-06T23:03:54.660Z,100802.69
2022-12-06T23:06:24.728Z,100796.00
2022-12-06T23:08:52.675Z,100793.16
2022-12-06T23:11:22.684Z,100796.84
2022-12-06T23:13:50.390Z,100790.78
2022-12-06T23:16:20.031Z,100783.13
2022-12-06T23:18:48.202Z,100782.13
2022-12-06T23:21:20.077Z,100783.28
2022-12-06T23:23:49.741Z,100774.25
2022-12-06T23:26:19.275Z,100766.38
2022-12-06T23:28:47.556Z,100774.41
2022-12-06T23:31:20.930Z,100766.22
2022-12-06T23:33:52.334Z,100765.38
2022-12-06T23:36:23.641Z,100773.41
2022-12-06T23:38:51.782Z,100771.88
2022-12-06T23:41:21.535Z,100753.97
2022-12-06T23:43:49.363Z,100756.31
2022-12-06T23:46:22.221Z,100748.28
2022-12-06T23:48:50.608Z,100748.16
2022-12-06T23:51:21.678Z,100745.59
2022-12-06T23:53:51.643Z,100741.75
2022-12-06T23:56:21.341Z,100741.47
2022-12-06T23:58:50.819Z,100741.47
